createdAt,value
2023-04-17T00:00:32.133Z,63.05
2023-04-17T00:03:01.459Z,63.92
2023-04-17T00:05:29.262Z,69.03
2023-04-17T00:07:57.148Z,69.50
2023-04-17T00:10:24.050Z,71.53
2023-04-17T00:12:51.229Z,69.47
2023-04-17T00:15:17.996Z,63.42
2023-04-17T00:17:44.928Z,61.22
2023-04-17T00:20:12.420Z,62.55
2023-04-17T00:22:39.722Z,64.60
2023-04-17T00:25:07.479Z,69.97
2023-04-17T00:27:34.288Z,65.05
2023-04-17T00:30:01.636Z,71.15
2023-04-17T00:32:28.591Z,73.35
2023-04-17T00:34:55.986Z,67.15
2023-04-17T00:37:22.901Z,70.30
2023-04-17T00:39:49.722Z,70.03
2023-04-17T00:42:16.542Z,70.65
2023-04-17T00:44:43.354Z,70.72
2023-04-17T00:47:10.310Z,73.22
2023-04-17T00:49:37.301Z,67.30
2023-04-17T00:52:04.684Z,73.20
2023-04-17T00:54:32.157Z,69.32
2023-04-17T00:56:59.910Z,72.75
2023-04-17T00:59:28.321Z,67.32
2023-04-17T01:01:55.463Z,69.75
2023-04-17T01:04:22.429Z,62.65
2023-04-17T01:06:49.298Z,66.10
2023-04-17T01:09:16.181Z,58.28
2023-04-17T01:11:43.038Z,62.38
2023-04-17T01:14:10.136Z,62.92
2023-04-17T01:16:39.298Z,61.15
2023-04-17T01:19:07.250Z,60.65
2023-04-17T01:21:34.085Z,56.35
2023-04-17T01:24:03.376Z,62.90
2023-04-17T01:26:32.685Z,61.95
2023-04-17T01:29:00.289Z,60.53
2023-04-17T01:31:29.069Z,60.45
2023-04-17T01:33:56.017Z,69.25
2023-04-17T01:36:22.812Z,68.28
2023-04-17T01:38:49.718Z,60.53
2023-04-17T01:41:16.560Z,64.63
2023-04-17T01:43:45.868Z,75.65
2023-04-17T01:46:13.387Z,71.55
2023-04-17T01:48:40.779Z,67.72
2023-04-17T01:51:07.668Z,75.63
2023-04-17T01:53:35.085Z,72.30
2023-04-17T01:56:02.088Z,72.22
2023-04-17T01:58:29.383Z,69.75
2023-04-17T02:00:56.323Z,75.43
2023-04-17T02:03:24.651Z,76.82
2023-04-17T02:05:53.492Z,68.82
2023-04-17T02:08:20.626Z,71.03
2023-04-17T02:10:47.499Z,77.00
2023-04-17T02:13:14.496Z,75.75
2023-04-17T02:15:41.614Z,75.45
2023-04-17T02:18:09.456Z,73.72
2023-04-17T02:20:37.490Z,72.80
2023-04-17T02:23:06.899Z,87.05
2023-04-17T02:25:34.493Z,88.18
2023-04-17T02:28:01.578Z,85.68
2023-04-17T02:30:28.810Z,92.82
2023-04-17T02:32:56.244Z,87.75
2023-04-17T02:35:29.204Z,99.80
2023-04-17T02:37:56.079Z,96.57
2023-04-17T02:40:23.110Z,92.25
2023-04-17T02:42:49.949Z,81.60
2023-04-17T02:45:16.734Z,79.50
2023-04-17T02:47:43.563Z,71.57
2023-04-17T02:50:11.196Z,63.22
2023-04-17T02:52:38.077Z,58.60
2023-04-17T02:55:05.858Z,64.03
2023-04-17T02:57:32.985Z,67.72
2023-04-17T03:00:01.568Z,64.20
2023-04-17T03:02:30.704Z,67.78
2023-04-17T03:04:57.745Z,76.35
2023-04-17T03:07:27.481Z,71.90
2023-04-17T03:09:54.341Z,67.00
2023-04-17T03:12:21.155Z,73.28
2023-04-17T03:14:47.981Z,73.32
2023-04-17T03:17:15.560Z,71.57
2023-04-17T03:19:42.503Z,69.35
2023-04-17T03:22:10.041Z,71.68
2023-04-17T03:24:38.164Z,77.38
2023-04-17T03:27:05.030Z,75.53
2023-04-17T03:29:31.923Z,76.15
2023-04-17T03:31:58.759Z,72.78
2023-04-17T03:34:26.245Z,75.63
2023-04-17T03:36:53.041Z,77.53
2023-04-17T03:39:19.894Z,71.88
2023-04-17T03:41:47.154Z,75.88
2023-04-17T03:44:14.009Z,79.22
2023-04-17T03:46:40.863Z,76.85
2023-04-17T03:49:07.669Z,70.53
2023-04-17T03:51:34.607Z,74.03
2023-04-17T03:54:01.474Z,73.00
2023-04-17T03:56:28.370Z,70.53
2023-04-17T03:58:55.203Z,76.90
2023-04-17T04:01:22.444Z,76.90
2023-04-17T04:03:49.601Z,76.60
2023-04-17T04:06:20.317Z,78.22
2023-04-17T04:08:47.324Z,77.82
2023-04-17T04:11:14.128Z,88.55
2023-04-17T04:13:41.141Z,79.72
2023-04-17T04:16:08.423Z,86.47
2023-04-17T04:18:36.585Z,83.28
2023-04-17T04:21:03.538Z,77.25
2023-04-17T04:23:30.713Z,80.38
2023-04-17T04:25:58.006Z,85.07
2023-04-17T04:28:28.074Z,75.20
2023-04-17T04:30:55.528Z,66.28
2023-04-17T04:33:22.368Z,62.75
2023-04-17T04:35:51.260Z,62.72
2023-04-17T04:38:18.662Z,57.92
2023-04-17T04:40:52.209Z,60.72
2023-04-17T04:43:21.670Z,56.85
2023-04-17T04:45:49.197Z,54.28
2023-04-17T04:48:16.023Z,51.88
2023-04-17T04:50:42.896Z,52.78
2023-04-17T04:53:09.676Z,49.58
2023-04-17T04:55:36.579Z,49.53
2023-04-17T04:58:03.369Z,52.45
2023-04-17T05:00:30.190Z,49.40
2023-04-17T05:02:57.203Z,57.75
2023-04-17T05:05:25.477Z,54.13
2023-04-17T05:07:54.978Z,51.38
2023-04-17T05:10:21.984Z,46.35
2023-04-17T05:12:48.740Z,51.60
2023-04-17T05:15:15.569Z,50.20
2023-04-17T05:17:42.576Z,47.50
2023-04-17T05:20:09.871Z,48.90
2023-04-17T05:22:36.722Z,48.13
2023-04-17T05:25:04.695Z,52.13
2023-04-17T05:27:31.499Z,49.85
2023-04-17T05:29:58.348Z,52.33
2023-04-17T05:32:25.576Z,51.88
2023-04-17T05:34:52.409Z,49.67
2023-04-17T05:37:19.217Z,51.05
2023-04-17T05:39:46.007Z,47.30
2023-04-17T05:42:12.885Z,54.08
2023-04-17T05:44:40.094Z,51.85
2023-04-17T05:47:07.137Z,47.40
2023-04-17T05:49:34.103Z,54.80
2023-04-17T05:52:00.994Z,50.63
2023-04-17T05:54:30.237Z,55.50
2023-04-17T05:56:57.188Z,49.17
2023-04-17T05:59:24.060Z,46.88
2023-04-17T06:01:51.188Z,51.90
2023-04-17T06:04:18.772Z,47.72
2023-04-17T06:06:46.075Z,46.95
2023-04-17T06:09:13.113Z,44.45
2023-04-17T06:11:40.108Z,46.30
2023-04-17T06:14:06.917Z,45.05
2023-04-17T06:16:33.967Z,49.33
2023-04-17T06:19:00.804Z,46.05
2023-04-17T06:21:28.056Z,47.83
2023-04-17T06:23:54.920Z,49.92
2023-04-17T06:26:21.758Z,51.25
2023-04-17T06:28:48.604Z,50.03
2023-04-17T06:31:15.709Z,47.13
2023-04-17T06:33:42.763Z,53.22
2023-04-17T06:36:09.771Z,49.33
2023-04-17T06:38:36.867Z,56.40
2023-04-17T06:41:03.898Z,55.08
2023-04-17T06:43:30.760Z,52.83
2023-04-17T06:45:57.674Z,53.55
2023-04-17T06:48:24.523Z,58.28
2023-04-17T06:50:51.387Z,55.33
2023-04-17T06:53:18.310Z,58.10
2023-04-17T06:55:45.270Z,53.63
2023-04-17T06:58:12.350Z,53.75
2023-04-17T07:00:39.236Z,52.90
2023-04-17T07:03:06.473Z,55.13
2023-04-17T07:05:33.409Z,54.65
2023-04-17T07:08:00.385Z,55.80
2023-04-17T07:10:27.230Z,57.05
2023-04-17T07:12:55.135Z,54.72
2023-04-17T07:15:22.108Z,55.58
2023-04-17T07:17:48.977Z,55.83
2023-04-17T07:20:15.866Z,53.92
2023-04-17T07:22:43.255Z,63.88
2023-04-17T07:25:10.140Z,52.83
2023-04-17T07:27:38.418Z,54.55
2023-04-17T07:30:08.983Z,52.40
2023-04-17T07:32:36.263Z,53.30
2023-04-17T07:35:04.472Z,53.78
2023-04-17T07:37:31.339Z,48.13
2023-04-17T07:39:58.153Z,41.50
2023-04-17T07:42:25.071Z,45.50
2023-04-17T07:44:52.004Z,45.25
2023-04-17T07:47:18.952Z,49.63
2023-04-17T07:49:49.176Z,44.53
2023-04-17T07:52:17.936Z,45.63
2023-04-17T07:54:45.049Z,44.22
2023-04-17T07:57:11.981Z,46.33
2023-04-17T07:59:38.909Z,42.88
2023-04-17T08:02:06.025Z,46.65
2023-04-17T08:04:33.396Z,48.53
2023-04-17T08:07:00.530Z,47.78
2023-04-17T08:09:27.600Z,51.92
2023-04-17T08:11:57.953Z,49.67
2023-04-17T08:14:25.507Z,50.50
2023-04-17T08:16:52.773Z,48.53
2023-04-17T08:19:19.668Z,54.55
2023-04-17T08:21:50.772Z,49.63
2023-04-17T08:24:19.696Z,54.22
2023-04-17T08:26:47.521Z,49.92
2023-04-17T08:29:14.670Z,48.20
2023-04-17T08:31:42.023Z,50.35
2023-04-17T08:34:14.498Z,52.25
2023-04-17T08:36:43.486Z,56.75
2023-04-17T08:39:12.276Z,50.30
2023-04-17T08:42:03.028Z,50.05
2023-04-17T08:44:30.612Z,51.63
2023-04-17T08:47:01.042Z,48.92
2023-04-17T08:49:34.490Z,52.38
2023-04-17T08:52:08.602Z,53.78
2023-04-17T08:54:36.618Z,52.40
2023-04-17T08:57:04.677Z,50.45
2023-04-17T08:59:32.661Z,51.45
2023-04-17T09:02:04.011Z,53.05
2023-04-17T09:04:41.981Z,57.55
2023-04-17T09:07:11.525Z,59.13
2023-04-17T09:09:55.743Z,47.45
2023-04-17T09:12:26.694Z,56.47
2023-04-17T09:14:53.668Z,55.38
2023-04-17T09:17:21.681Z,55.70
2023-04-17T09:20:09.496Z,56.58
2023-04-17T09:22:38.162Z,57.38
2023-04-17T09:25:05.428Z,56.58
2023-04-17T09:27:32.535Z,52.85
2023-04-17T09:29:59.477Z,56.10
2023-04-17T09:32:27.051Z,53.15
2023-04-17T09:34:55.225Z,47.17
2023-04-17T09:37:22.278Z,46.60
2023-04-17T09:40:00.149Z,47.05
2023-04-17T09:42:28.278Z,47.40
2023-04-17T09:44:55.408Z,47.80
2023-04-17T09:47:22.892Z,46.67
2023-04-17T09:49:52.809Z,44.22
2023-04-17T09:52:24.005Z,44.20
2023-04-17T09:54:53.991Z,43.58
2023-04-17T09:57:21.152Z,41.72
2023-04-17T09:59:49.083Z,39.47
2023-04-17T10:02:18.315Z,39.53
2023-04-17T10:04:46.696Z,41.95
2023-04-17T10:07:14.047Z,39.42
2023-04-17T10:09:42.471Z,41.47
2023-04-17T10:12:18.127Z,40.92
2023-04-17T10:14:51.758Z,41.63
2023-04-17T10:17:32.077Z,41.70
2023-04-17T10:20:20.213Z,42.08
2023-04-17T10:22:54.862Z,41.00
2023-04-17T10:25:26.511Z,38.40
2023-04-17T10:27:58.500Z,41.72
2023-04-17T10:30:51.423Z,39.95
2023-04-17T10:33:26.500Z,36.40
2023-04-17T10:35:54.022Z,38.28
2023-04-17T10:38:35.045Z,37.03
2023-04-17T10:41:09.637Z,34.67
2023-04-17T10:43:40.766Z,37.83
2023-04-17T10:46:14.998Z,34.58
2023-04-17T10:48:52.972Z,36.88
2023-04-17T10:51:29.106Z,36.63
2023-04-17T10:56:37.884Z,37.63
2023-04-17T10:59:05.957Z,39.40
2023-04-17T11:01:48.246Z,34.70
2023-04-17T11:04:31.034Z,34.70
2023-04-17T11:06:58.385Z,36.38
2023-04-17T11:09:27.948Z,38.20
2023-04-17T11:11:58.473Z,39.15
2023-04-17T11:14:26.530Z,33.70
2023-04-17T11:16:53.395Z,36.70
2023-04-17T11:19:26.653Z,36.00
2023-04-17T11:21:58.835Z,35.55
2023-04-17T11:24:30.369Z,34.25
2023-04-17T11:27:03.451Z,34.00
2023-04-17T11:29:30.481Z,35.75
2023-04-17T11:31:58.771Z,34.03
2023-04-17T11:34:26.761Z,37.92
2023-04-17T11:36:59.396Z,34.63
2023-04-17T11:39:29.809Z,38.10
2023-04-17T11:41:57.275Z,34.08
2023-04-17T11:44:24.845Z,35.95
2023-04-17T11:46:52.482Z,33.85
2023-04-17T11:49:26.705Z,34.63
2023-04-17T11:51:54.456Z,30.90
2023-04-17T11:54:34.957Z,31.45
2023-04-17T11:57:02.727Z,30.73
2023-04-17T11:59:31.361Z,29.85
2023-04-17T12:02:00.705Z,33.92
2023-04-17T12:04:29.587Z,29.75
2023-04-17T12:06:59.198Z,29.67
2023-04-17T12:09:31.464Z,35.55
2023-04-17T12:11:59.321Z,30.67
2023-04-17T12:14:26.728Z,33.35
2023-04-17T12:16:53.617Z,32.22
2023-04-17T12:19:20.514Z,30.30
2023-04-17T12:21:50.038Z,28.70
2023-04-17T12:24:18.184Z,27.20
2023-04-17T12:26:46.880Z,30.38
2023-04-17T12:29:14.853Z,26.25
2023-04-17T12:34:17.029Z,29.80
2023-04-17T12:36:43.923Z,25.95
2023-04-17T12:39:10.772Z,24.77
2023-04-17T12:41:37.686Z,30.48
2023-04-17T12:44:04.549Z,33.63
2023-04-17T12:46:31.542Z,29.80
2023-04-17T12:48:59.329Z,29.63
2023-04-17T12:51:29.745Z,27.20
2023-04-17T12:53:56.908Z,27.08
2023-04-17T12:56:23.948Z,33.00
2023-04-17T12:58:51.027Z,27.33
2023-04-17T13:01:17.841Z,25.48
2023-04-17T13:03:44.924Z,29.08
2023-04-17T13:06:12.391Z,27.45
2023-04-17T13:08:39.247Z,28.67
2023-04-17T13:11:06.103Z,25.80
2023-04-17T13:13:32.879Z,25.83
2023-04-17T13:15:59.659Z,26.15
2023-04-17T13:18:26.568Z,25.45
2023-04-17T13:20:53.352Z,26.10
2023-04-17T13:23:20.605Z,27.48
2023-04-17T13:25:47.495Z,24.63
2023-04-17T13:28:14.271Z,30.23
2023-04-17T13:30:41.238Z,25.58
2023-04-17T13:33:08.240Z,27.55
2023-04-17T13:35:35.203Z,25.88
2023-04-17T13:38:03.283Z,30.05
2023-04-17T13:40:30.844Z,25.88
2023-04-17T13:42:58.500Z,27.92
2023-04-17T13:45:25.421Z,28.60
2023-04-17T13:47:52.340Z,27.23
2023-04-17T13:50:19.688Z,28.95
2023-04-17T13:52:46.549Z,29.25
2023-04-17T13:55:14.788Z,28.38
2023-04-17T13:57:41.631Z,28.05
2023-04-17T14:00:09.119Z,27.17
2023-04-17T14:02:36.502Z,27.10
2023-04-17T14:05:03.677Z,28.70
2023-04-17T14:07:31.040Z,25.33
2023-04-17T14:09:57.810Z,25.60
2023-04-17T14:12:24.803Z,24.05
2023-04-17T14:14:51.603Z,26.92
2023-04-17T14:17:18.506Z,25.45
2023-04-17T14:19:45.477Z,28.33
2023-04-17T14:22:12.370Z,27.77
2023-04-17T14:24:39.532Z,26.38
2023-04-17T14:27:06.373Z,33.70
2023-04-17T14:29:33.325Z,27.15
2023-04-17T14:32:00.120Z,27.17
2023-04-17T14:34:27.428Z,27.85
2023-04-17T14:36:56.203Z,26.80
2023-04-17T14:39:24.438Z,25.17
2023-04-17T14:41:52.604Z,27.77
2023-04-17T14:44:30.429Z,28.17
2023-04-17T14:46:57.557Z,27.02
2023-04-17T14:49:24.768Z,28.83
2023-04-17T14:51:51.786Z,29.63
2023-04-17T14:54:18.738Z,28.10
2023-04-17T14:56:45.723Z,30.30
2023-04-17T14:59:12.727Z,29.00
2023-04-17T15:01:39.678Z,28.00
2023-04-17T15:04:06.888Z,29.95
2023-04-17T15:06:34.052Z,27.27
2023-04-17T15:09:00.961Z,27.08
2023-04-17T15:11:27.814Z,34.63
2023-04-17T15:13:54.716Z,33.28
2023-04-17T15:16:21.622Z,30.23
2023-04-17T15:18:48.579Z,33.30
2023-04-17T15:21:20.171Z,29.05
2023-04-17T15:23:47.185Z,32.00
2023-04-17T15:26:14.326Z,27.05
2023-04-17T15:28:41.297Z,28.27
2023-04-17T15:31:08.352Z,28.05
2023-04-17T15:33:36.120Z,29.73
2023-04-17T15:36:03.091Z,25.10
2023-04-17T15:38:30.003Z,25.92
2023-04-17T15:40:57.274Z,26.23
2023-04-17T15:43:24.435Z,23.48
2023-04-17T15:45:51.966Z,30.02
2023-04-17T15:48:19.319Z,25.48
2023-04-17T15:50:46.372Z,23.10
2023-04-17T15:53:13.446Z,23.30
2023-04-17T15:55:41.535Z,23.77
2023-04-17T15:58:08.554Z,24.38
2023-04-17T16:00:35.450Z,24.13
2023-04-17T16:03:02.430Z,24.98
2023-04-17T16:05:30.529Z,26.30
2023-04-17T16:07:58.704Z,30.27
2023-04-17T16:10:25.638Z,23.65
2023-04-17T16:12:52.477Z,25.20
2023-04-17T16:15:19.354Z,23.83
2023-04-17T16:17:48.717Z,26.00
2023-04-17T16:20:16.213Z,22.55
2023-04-17T16:22:43.148Z,22.73
2023-04-17T16:25:12.194Z,26.80
2023-04-17T16:27:40.260Z,25.85
2023-04-17T16:30:08.680Z,22.15
2023-04-17T16:32:35.632Z,22.45
2023-04-17T16:35:02.475Z,21.35
2023-04-17T16:37:29.364Z,23.60
2023-04-17T16:39:56.348Z,20.65
2023-04-17T16:42:24.195Z,19.48
2023-04-17T16:44:51.051Z,18.08
2023-04-17T16:47:17.996Z,22.33
2023-04-17T16:49:44.880Z,20.38
2023-04-17T16:52:11.917Z,17.70
2023-04-17T16:54:38.843Z,19.08
2023-04-17T16:57:08.404Z,17.10
2023-04-17T16:59:35.291Z,16.90
2023-04-17T17:02:02.462Z,18.55
2023-04-17T17:04:30.104Z,18.80
2023-04-17T17:06:57.487Z,13.07
2023-04-17T17:09:25.258Z,15.85
2023-04-17T17:11:52.138Z,14.38
2023-04-17T17:14:19.168Z,18.45
2023-04-17T17:16:46.015Z,14.95
2023-04-17T17:19:13.172Z,17.83
2023-04-17T17:21:40.442Z,16.08
2023-04-17T17:24:07.551Z,15.73
2023-04-17T17:26:34.361Z,14.85
2023-04-17T17:29:01.341Z,15.25
2023-04-17T17:31:28.258Z,13.15
2023-04-17T17:33:55.879Z,17.15
2023-04-17T17:36:22.915Z,16.90
2023-04-17T17:38:55.884Z,15.07
2023-04-17T17:41:24.024Z,13.77
2023-04-17T17:43:50.998Z,13.63
2023-04-17T17:46:19.449Z,13.63
2023-04-17T17:48:46.382Z,15.10
2023-04-17T17:51:13.259Z,17.20
2023-04-17T17:53:41.152Z,13.88
2023-04-17T17:56:08.272Z,15.43
2023-04-17T17:58:36.900Z,14.75
2023-04-17T18:01:03.766Z,16.52
2023-04-17T18:03:30.969Z,16.02
2023-04-17T18:05:58.149Z,13.20
2023-04-17T18:08:24.938Z,16.02
2023-04-17T18:10:52.144Z,14.82
2023-04-17T18:13:19.169Z,16.95
2023-04-17T18:15:46.027Z,18.15
2023-04-17T18:18:14.347Z,15.77
2023-04-17T18:20:41.275Z,17.92
2023-04-17T18:23:08.121Z,17.85
2023-04-17T18:25:39.274Z,15.88
2023-04-17T18:28:06.865Z,25.10
2023-04-17T18:30:33.698Z,21.90
2023-04-17T18:33:00.736Z,23.73
2023-04-17T18:35:27.668Z,22.83
2023-04-17T18:37:54.527Z,23.98
2023-04-17T18:40:21.604Z,24.10
2023-04-17T18:42:48.518Z,27.17
2023-04-17T18:45:16.194Z,28.60
2023-04-17T18:47:43.459Z,26.23
2023-04-17T18:50:12.037Z,32.67
2023-04-17T18:52:45.042Z,35.03
2023-04-17T18:55:15.550Z,30.17
2023-04-17T18:57:42.454Z,32.03
2023-04-17T19:00:09.800Z,29.27
2023-04-17T19:02:37.208Z,32.47
2023-04-17T19:05:04.653Z,31.73
2023-04-17T19:07:31.497Z,36.67
2023-04-17T19:09:58.320Z,33.00
2023-04-17T19:12:25.151Z,33.53
2023-04-17T19:14:52.221Z,32.25
2023-04-17T19:17:19.123Z,33.70
2023-04-17T19:19:46.194Z,33.03
2023-04-17T19:22:15.866Z,37.17
2023-04-17T19:24:42.964Z,33.75
2023-04-17T19:27:09.936Z,34.85
2023-04-17T19:29:37.136Z,37.63
2023-04-17T19:32:04.260Z,35.22
2023-04-17T19:34:31.140Z,35.90
2023-04-17T19:36:58.007Z,34.25
2023-04-17T19:39:26.921Z,39.55
2023-04-17T19:41:53.795Z,34.58
2023-04-17T19:44:20.739Z,35.92
2023-04-17T19:46:47.872Z,34.63
2023-04-17T19:49:15.777Z,36.10
2023-04-17T19:51:42.913Z,31.05
2023-04-17T19:54:12.154Z,32.00
2023-04-17T19:56:39.612Z,34.10
2023-04-17T19:59:06.552Z,33.13
2023-04-17T20:01:33.853Z,32.30
2023-04-17T20:04:00.909Z,33.95
2023-04-17T20:06:27.854Z,32.63
2023-04-17T20:08:56.491Z,32.28
2023-04-17T20:11:24.052Z,30.25
2023-04-17T20:13:52.327Z,29.92
2023-04-17T20:16:19.258Z,32.83
2023-04-17T20:18:46.259Z,37.15
2023-04-17T20:21:13.948Z,33.58
2023-04-17T20:23:41.271Z,31.52
2023-04-17T20:26:08.241Z,34.10
2023-04-17T20:28:35.085Z,33.15
2023-04-17T20:31:03.525Z,35.55
2023-04-17T20:33:30.885Z,33.83
2023-04-17T20:35:58.218Z,33.92
2023-04-17T20:38:25.752Z,30.83
2023-04-17T20:40:52.688Z,32.25
2023-04-17T20:43:19.701Z,33.88
2023-04-17T20:45:48.377Z,34.42
2023-04-17T20:48:15.319Z,36.78
2023-04-17T20:50:42.844Z,31.38
2023-04-17T20:53:09.852Z,34.03
2023-04-17T20:55:38.202Z,31.65
2023-04-17T20:58:05.049Z,32.15
2023-04-17T21:00:32.623Z,31.38
2023-04-17T21:02:59.653Z,27.40
2023-04-17T21:05:27.171Z,33.42
2023-04-17T21:07:54.554Z,33.65
2023-04-17T21:10:21.667Z,33.13
2023-04-17T21:12:48.558Z,33.83
2023-04-17T21:15:15.517Z,35.72
2023-04-17T21:17:46.717Z,37.05
2023-04-17T21:20:14.066Z,32.58
2023-04-17T21:22:40.972Z,35.85
2023-04-17T21:25:08.447Z,35.47
2023-04-17T21:27:35.427Z,36.92
2023-04-17T21:30:02.674Z,38.03
2023-04-17T21:32:29.630Z,36.10
2023-04-17T21:34:56.559Z,35.03
2023-04-17T21:37:23.405Z,36.38
2023-04-17T21:39:50.316Z,35.92
2023-04-17T21:42:17.361Z,38.67
2023-04-17T21:44:44.520Z,41.22
2023-04-17T21:47:11.402Z,36.00
2023-04-17T21:49:38.268Z,34.22
2023-04-17T21:52:05.220Z,38.00
2023-04-17T21:54:33.048Z,38.13
2023-04-17T21:56:59.879Z,38.25
2023-04-17T21:59:26.666Z,38.83
2023-04-17T22:01:53.619Z,39.65
2023-04-17T22:04:20.663Z,40.03
2023-04-17T22:06:47.576Z,38.05
2023-04-17T22:09:14.898Z,37.03
2023-04-17T22:11:41.851Z,36.90
2023-04-17T22:14:08.985Z,40.20
2023-04-17T22:16:35.928Z,39.45
2023-04-17T22:19:02.796Z,40.58
2023-04-17T22:21:29.785Z,40.22
2023-04-17T22:23:56.644Z,38.58
2023-04-17T22:26:23.516Z,41.15
2023-04-17T22:28:50.411Z,38.90
2023-04-17T22:31:17.276Z,44.08
2023-04-17T22:33:44.343Z,41.95
2023-04-17T22:36:11.222Z,46.35
2023-04-17T22:38:37.993Z,40.80
2023-04-17T22:41:05.343Z,41.53
2023-04-17T22:43:32.268Z,43.30
2023-04-17T22:45:59.493Z,44.70
2023-04-17T22:48:27.920Z,39.17
2023-04-17T22:50:55.795Z,38.53
2023-04-17T22:53:23.068Z,42.58
2023-04-17T22:56:01.509Z,43.55
2023-04-17T22:58:29.762Z,47.25
2023-04-17T23:00:56.827Z,45.00
2023-04-17T23:03:23.809Z,47.10
2023-04-17T23:05:52.881Z,45.83
2023-04-17T23:08:19.820Z,44.33
2023-04-17T23:10:46.918Z,45.63
2023-04-17T23:13:13.769Z,45.58
2023-04-17T23:15:41.086Z,44.00
2023-04-17T23:18:08.044Z,45.03
2023-04-17T23:20:35.028Z,46.80
2023-04-17T23:23:04.963Z,45.60
2023-04-17T23:25:31.873Z,54.63
2023-04-17T23:27:59.252Z,45.53
2023-04-17T23:30:26.251Z,44.50
2023-04-17T23:32:54.990Z,47.33
2023-04-17T23:35:25.086Z,53.60
2023-04-17T23:37:51.979Z,51.20
2023-04-17T23:40:18.823Z,48.50
2023-04-17T23:42:46.051Z,49.30
2023-04-17T23:45:12.892Z,53.70
2023-04-17T23:47:39.928Z,51.00
2023-04-17T23:50:07.581Z,50.83
2023-04-17T23:52:34.323Z,51.72
2023-04-17T23:55:01.605Z,52.92
2023-04-17T23:57:28.458Z,53.88
2023-04-17T23:59:55.676Z,50.22
